Time;durP1;ratioP1;P1;durP2;ratioP2;P2;SDS_P1;SDS_P2;PMS_P1;PMS_P2;Temp;Humidity;BMP_temperature;BMP_pressure;BME280_temperature;BME280_humidity;BME280_pressure;Samples;Min_cycle;Max_cycle;Signal;HPM_P1;HPM_P2
2023/12/11 00:00:54;;;;;;;;;;;;;;;5.65;100.00;98046.95;67973;1275;1016222;-72
2023/12/11 00:04:14;;;;;;;;;;;;;;;5.72;100.00;98043.48;68015;1275;1016232;-72
2023/12/11 00:07:16;;;;;;;;;;;;;;;5.79;100.00;98045.73;67998;1275;1018838;-72
2023/12/11 00:10:19;;;;;;;;;;;;;;;5.85;100.00;98036.88;68007;1275;1015967;-72
2023/12/11 00:13:22;;;;;;;;;;;;;;;5.85;100.00;98026.44;68062;1275;1016287;-72
2023/12/11 00:16:24;;;;;;;;;;;;;;;5.77;100.00;98017.52;68050;1275;1016640;-72
2023/12/11 00:19:27;;;;;;;;;;;;;;;5.78;100.00;98017.50;68022;1275;1016471;-72
2023/12/11 00:22:32;;;;;;;;;;;;;;;5.90;100.00;98017.50;68014;1275;1016754;-72
2023/12/11 00:25:34;;;;;;;;;;;;;;;5.89;100.00;98010.80;68089;1275;1016491;-72
2023/12/11 00:28:37;;;;;;;;;;;;;;;5.87;100.00;97998.56;67986;1275;1016478;-72
2023/12/11 00:31:39;;;;;;;;;;;;;;;5.86;100.00;97997.59;67961;1275;1017280;-72
2023/12/11 00:34:42;;;;;;;;;;;;;;;5.91;100.00;98000.78;67993;1275;1016351;-72
2023/12/11 00:37:45;;;;;;;;;;;;;;;5.83;100.00;97998.80;68045;1275;1016280;-72
2023/12/11 00:40:48;;;;;;;;;;;;;;;5.79;100.00;98004.59;67997;1275;1016375;-72
2023/12/11 00:43:50;;;;;;;;;;;;;;;5.75;100.00;97998.36;68046;1275;1016385;-72
2023/12/11 00:46:53;;;;;;;;;;;;;;;5.74;100.00;97994.12;67998;1275;1015804;-72
2023/12/11 00:49:56;;;;;;;;;;;;;;;5.85;100.00;97994.00;68017;1275;1015988;-72
2023/12/11 00:52:58;;;;;;;;;;;;;;;5.91;100.00;97992.49;68040;1275;1016955;-72
2023/12/11 00:56:01;;;;;;;;;;;;;;;5.93;100.00;97985.96;68004;1275;1015659;-72
2023/12/11 00:59:04;;;;;;;;;;;;;;;5.96;100.00;97982.30;67999;1275;1016354;-72
2023/12/11 01:02:06;;;;;;;;;;;;;;;5.97;100.00;97977.08;68028;1275;1016649;-72
2023/12/11 01:05:09;;;;;;;;;;;;;;;6.05;100.00;97982.71;68070;1275;1016297;-72
2023/12/11 01:08:12;;;;;;;;;;;;;;;6.02;100.00;97987.04;67953;1275;1016167;-72
2023/12/11 01:11:14;;;;;;;;;;;;;;;6.00;100.00;97980.40;68040;1275;1016342;-72
2023/12/11 01:14:17;;;;;;;;;;;;;;;5.98;100.00;97967.80;68016;1275;1016555;-72
2023/12/11 01:17:19;;;;;;;;;;;;;;;5.90;100.00;97958.86;68040;1275;1015988;-72
2023/12/11 01:20:22;;;;;;;;;;;;;;;5.82;100.00;97966.78;68023;1275;1015983;-72
2023/12/11 01:23:25;;;;;;;;;;;;;;;5.78;100.00;97968.40;68044;1275;1016398;-72
2023/12/11 01:26:28;;;;;;;;;;;;;;;5.82;100.00;97970.73;67937;1275;1016396;-72
2023/12/11 01:29:30;;;;;;;;;;;;;;;5.89;100.00;97966.73;68010;1275;1016423;-72
2023/12/11 01:32:33;;;;;;;;;;;;;;;5.90;100.00;97969.30;67968;1275;1016536;-72
2023/12/11 01:35:37;;;;;;;;;;;;;;;5.96;100.00;97962.69;68047;1275;1016492;-72
2023/12/11 01:38:40;;;;;;;;;;;;;;;6.03;100.00;97942.91;68012;1275;1015938;-73
2023/12/11 01:41:43;;;;;;;;;;;;;;;6.03;100.00;97943.06;68047;1275;1016462;-72
2023/12/11 01:44:45;;;;;;;;;;;;;;;6.06;100.00;97942.71;68073;1275;1017214;-72
2023/12/11 01:47:48;;;;;;;;;;;;;;;5.98;100.00;97938.70;67968;1275;1016262;-72
2023/12/11 01:50:50;;;;;;;;;;;;;;;5.88;100.00;97936.41;67953;1275;1016954;-72
2023/12/11 01:53:53;;;;;;;;;;;;;;;5.86;100.00;97930.77;68004;1275;1016404;-73
2023/12/11 01:56:56;;;;;;;;;;;;;;;5.93;100.00;97925.25;68007;1275;1016320;-73
2023/12/11 01:59:58;;;;;;;;;;;;;;;6.08;100.00;97921.98;67990;1275;1016399;-72
2023/12/11 02:03:01;;;;;;;;;;;;;;;5.98;100.00;97920.61;68053;1275;1016461;-72
2023/12/11 02:06:04;;;;;;;;;;;;;;;6.00;100.00;97919.95;68039;1275;1016476;-72
2023/12/11 02:09:06;;;;;;;;;;;;;;;6.18;100.00;97907.17;68000;1275;1018862;-72
2023/12/11 02:12:09;;;;;;;;;;;;;;;6.15;100.00;97908.01;68009;1275;1016415;-72
2023/12/11 02:15:11;;;;;;;;;;;;;;;6.13;100.00;97900.49;67997;1275;1019008;-72
2023/12/11 02:18:14;;;;;;;;;;;;;;;6.12;100.00;97897.75;68000;1275;1016564;-72
2023/12/11 02:21:17;;;;;;;;;;;;;;;6.14;100.00;97889.02;68032;1275;1015770;-72
2023/12/11 02:24:19;;;;;;;;;;;;;;;6.14;100.00;97890.04;68035;1275;1016447;-72
2023/12/11 02:27:22;;;;;;;;;;;;;;;6.24;100.00;97895.89;67993;1275;1016458;-72
2023/12/11 02:30:24;;;;;;;;;;;;;;;6.18;100.00;97893.84;67994;1275;1016222;-72
2023/12/11 02:33:27;;;;;;;;;;;;;;;6.16;100.00;97887.86;68018;1275;1016341;-72
2023/12/11 02:36:30;;;;;;;;;;;;;;;6.26;100.00;97882.90;68077;1275;1016423;-72
2023/12/11 02:39:32;;;;;;;;;;;;;;;6.23;100.00;97881.19;67986;1275;1015821;-72
2023/12/11 02:42:35;;;;;;;;;;;;;;;6.24;100.00;97877.30;68002;1275;1016553;-72
2023/12/11 02:45:40;;;;;;;;;;;;;;;6.22;100.00;97870.98;68011;1275;1016244;-72
2023/12/11 02:48:43;;;;;;;;;;;;;;;6.23;100.00;97869.55;68017;1275;1016783;-72
2023/12/11 02:51:46;;;;;;;;;;;;;;;6.17;100.00;97868.69;68013;1275;1019671;-72
2023/12/11 02:54:48;;;;;;;;;;;;;;;6.29;100.00;97866.77;68024;1275;1016150;-72
2023/12/11 02:57:51;;;;;;;;;;;;;;;6.41;100.00;97859.67;68001;1275;1016393;-72
2023/12/11 03:00:53;;;;;;;;;;;;;;;6.34;100.00;97849.82;68017;1275;1016318;-72
2023/12/11 03:03:56;;;;;;;;;;;;;;;6.41;100.00;97840.02;68032;1275;1016098;-72
2023/12/11 03:06:58;;;;;;;;;;;;;;;6.44;100.00;97836.58;67965;1275;1016426;-72
2023/12/11 03:10:01;;;;;;;;;;;;;;;6.49;100.00;97840.10;67971;1275;1016434;-73
2023/12/11 03:13:04;;;;;;;;;;;;;;;6.45;100.00;97839.24;68036;1275;1016341;-72
2023/12/11 03:16:06;;;;;;;;;;;;;;;6.55;100.00;97839.86;68040;1275;1016545;-72
2023/12/11 03:19:09;;;;;;;;;;;;;;;6.64;100.00;97824.23;68018;1275;1016453;-72
2023/12/11 03:22:11;;;;;;;;;;;;;;;6.61;100.00;97811.74;68025;1275;1016464;-71
2023/12/11 03:25:17;;;;;;;;;;;;;;;6.63;100.00;97809.91;68041;1275;1016708;-72
2023/12/11 03:28:20;;;;;;;;;;;;;;;6.59;100.00;97817.94;68040;1275;1016460;-72
2023/12/11 03:31:22;;;;;;;;;;;;;;;6.59;100.00;97810.27;68046;1275;1016630;-72
2023/12/11 03:34:25;;;;;;;;;;;;;;;6.55;100.00;97810.66;68026;1275;1016111;-72
2023/12/11 03:37:27;;;;;;;;;;;;;;;6.55;100.00;97807.05;68024;1275;1018644;-72
2023/12/11 03:40:30;;;;;;;;;;;;;;;6.58;100.00;97805.96;68031;1275;1016449;-71
2023/12/11 03:43:32;;;;;;;;;;;;;;;6.58;100.00;97808.95;67999;1275;1016608;-72
2023/12/11 03:46:35;;;;;;;;;;;;;;;6.51;100.00;97813.38;67983;1275;1016579;-71
2023/12/11 03:49:37;;;;;;;;;;;;;;;6.72;100.00;97811.08;68032;1275;1016233;-71
2023/12/11 03:52:40;;;;;;;;;;;;;;;6.64;100.00;97802.53;68033;1275;1016340;-72
2023/12/11 03:55:43;;;;;;;;;;;;;;;6.64;100.00;97796.44;67987;1275;1016296;-71
2023/12/11 03:58:45;;;;;;;;;;;;;;;6.51;100.00;97782.48;68002;1275;1016383;-72
2023/12/11 04:01:48;;;;;;;;;;;;;;;6.47;100.00;97778.16;68046;1275;1016230;-71
2023/12/11 04:04:50;;;;;;;;;;;;;;;6.35;100.00;97789.86;68038;1275;1016067;-72
2023/12/11 04:07:53;;;;;;;;;;;;;;;6.29;100.00;97797.84;67968;1275;1017861;-72
2023/12/11 04:10:57;;;;;;;;;;;;;;;6.33;100.00;97812.22;68006;1275;1017075;-70
2023/12/11 04:13:59;;;;;;;;;;;;;;;6.42;100.00;97810.98;67983;1275;1016344;-71
2023/12/11 04:17:02;;;;;;;;;;;;;;;6.40;100.00;97801.00;68011;1275;1016490;-72
2023/12/11 04:20:05;;;;;;;;;;;;;;;6.35;100.00;97786.36;67972;1275;1016457;-72
2023/12/11 04:23:07;;;;;;;;;;;;;;;6.38;100.00;97786.54;68014;1275;1016152;-72
2023/12/11 04:26:10;;;;;;;;;;;;;;;6.41;100.00;97773.70;68032;1275;1016035;-72
2023/12/11 04:29:12;;;;;;;;;;;;;;;6.35;100.00;97767.09;68044;1275;1016444;-72
2023/12/11 04:32:15;;;;;;;;;;;;;;;6.22;100.00;97757.27;67922;1275;1016455;-71
2023/12/11 04:35:18;;;;;;;;;;;;;;;6.23;100.00;97754.41;68016;1275;1016599;-72
2023/12/11 04:38:20;;;;;;;;;;;;;;;6.36;100.00;97754.52;68039;1275;1016441;-72
2023/12/11 04:41:23;;;;;;;;;;;;;;;6.35;100.00;97757.23;68000;1275;1016136;-72
2023/12/11 04:44:25;;;;;;;;;;;;;;;6.49;100.00;97766.61;68047;1275;1016296;-72
2023/12/11 04:47:28;;;;;;;;;;;;;;;6.48;100.00;97765.48;68038;1275;1016484;-72
2023/12/11 04:50:31;;;;;;;;;;;;;;;6.56;100.00;97762.33;68050;1275;1016302;-72
2023/12/11 04:53:33;;;;;;;;;;;;;;;6.49;100.00;97758.81;68037;1275;1020145;-72
2023/12/11 04:56:36;;;;;;;;;;;;;;;6.49;100.00;97760.91;68037;1275;1015933;-71
2023/12/11 04:59:39;;;;;;;;;;;;;;;6.40;100.00;97762.27;68035;1275;1016474;-72
2023/12/11 05:02:41;;;;;;;;;;;;;;;6.41;100.00;97755.97;68010;1275;1016361;-72
2023/12/11 05:05:44;;;;;;;;;;;;;;;6.39;100.00;97755.05;68014;1275;1016814;-71
2023/12/11 05:08:46;;;;;;;;;;;;;;;6.33;100.00;97758.36;68031;1275;1016336;-71
2023/12/11 05:11:49;;;;;;;;;;;;;;;6.22;100.00;97775.33;68023;1275;1016388;-72
2023/12/11 05:14:51;;;;;;;;;;;;;;;6.26;100.00;97767.48;68006;1275;1016633;-72
2023/12/11 05:17:54;;;;;;;;;;;;;;;6.30;100.00;97752.13;68047;1275;1016501;-72
2023/12/11 05:21:06;;;;;;;;;;;;;;;6.32;100.00;97738.27;67936;1275;1016566;-72
2023/12/11 05:24:08;;;;;;;;;;;;;;;6.32;100.00;97735.33;68048;1275;1016445;-73
2023/12/11 05:27:12;;;;;;;;;;;;;;;6.44;100.00;97736.88;65371;1275;6376726;-72
2023/12/11 05:30:14;;;;;;;;;;;;;;;6.54;100.00;97731.72;68061;1275;1016265;-71
2023/12/11 05:33:17;;;;;;;;;;;;;;;6.56;100.00;97724.11;68066;1275;1016390;-72
2023/12/11 05:36:19;;;;;;;;;;;;;;;6.53;100.00;97715.65;67980;1275;1015881;-71
2023/12/11 05:39:23;;;;;;;;;;;;;;;6.44;100.00;97709.06;68025;1275;1016258;-72
2023/12/11 05:42:25;;;;;;;;;;;;;;;6.48;100.00;97703.42;68003;1275;1016451;-72
2023/12/11 05:45:28;;;;;;;;;;;;;;;6.45;100.00;97697.56;68029;1275;1016369;-72
2023/12/11 05:48:30;;;;;;;;;;;;;;;6.43;100.00;97700.29;68063;1275;1016900;-71
2023/12/11 05:51:33;;;;;;;;;;;;;;;6.44;100.00;97707.67;68057;1275;1017454;-72
2023/12/11 05:54:35;;;;;;;;;;;;;;;6.44;100.00;97706.27;68012;1275;1016466;-71
2023/12/11 05:57:38;;;;;;;;;;;;;;;6.42;100.00;97708.48;68016;1275;1016193;-72
2023/12/11 06:00:41;;;;;;;;;;;;;;;6.33;100.00;97709.02;68049;1275;1016067;-72
2023/12/11 06:03:43;;;;;;;;;;;;;;;6.22;100.00;97709.92;68011;1275;1016132;-72
2023/12/11 06:06:46;;;;;;;;;;;;;;;6.20;100.00;97701.16;67930;1275;1016355;-71
2023/12/11 06:09:49;;;;;;;;;;;;;;;6.17;100.00;97695.61;68046;1275;1016650;-71
2023/12/11 06:12:52;;;;;;;;;;;;;;;6.06;100.00;97696.13;68001;1275;1016130;-72
2023/12/11 06:15:54;;;;;;;;;;;;;;;6.02;100.00;97690.77;68055;1275;1019674;-72
2023/12/11 06:18:57;;;;;;;;;;;;;;;6.00;100.00;97683.96;68022;1275;1017860;-71
2023/12/11 06:22:00;;;;;;;;;;;;;;;6.00;100.00;97671.67;67973;1275;1018258;-72
2023/12/11 06:25:03;;;;;;;;;;;;;;;6.02;100.00;97660.09;68019;1275;1016542;-71
2023/12/11 06:28:06;;;;;;;;;;;;;;;5.93;100.00;97666.34;68014;1275;1017012;-71
2023/12/11 06:31:08;;;;;;;;;;;;;;;6.06;100.00;97667.14;67976;1275;1016881;-71
2023/12/11 06:34:11;;;;;;;;;;;;;;;6.10;100.00;97656.64;68007;1275;1016640;-71
2023/12/11 06:37:13;;;;;;;;;;;;;;;6.15;100.00;97656.88;67992;1275;1017590;-72
2023/12/11 06:40:16;;;;;;;;;;;;;;;6.41;100.00;97663.41;67985;1275;1016436;-71
2023/12/11 06:43:20;;;;;;;;;;;;;;;6.32;100.00;97666.41;67999;1275;1016165;-72
2023/12/11 06:46:25;;;;;;;;;;;;;;;6.40;100.00;97667.65;68039;1275;1018363;-72
2023/12/11 06:49:29;;;;;;;;;;;;;;;6.31;100.00;97669.40;68055;1275;1016413;-72
2023/12/11 06:52:32;;;;;;;;;;;;;;;6.26;100.00;97666.94;67989;1275;1016044;-72
2023/12/11 06:55:36;;;;;;;;;;;;;;;6.25;100.00;97665.45;68001;1275;1016213;-71
2023/12/11 06:58:39;;;;;;;;;;;;;;;6.21;100.00;97663.27;68050;1275;1017091;-72
2023/12/11 07:01:41;;;;;;;;;;;;;;;6.18;100.00;97662.58;68043;1275;1016136;-72
2023/12/11 07:04:44;;;;;;;;;;;;;;;6.32;100.00;97666.08;67967;1275;1016459;-71
2023/12/11 07:07:50;;;;;;;;;;;;;;;6.42;100.00;97672.20;68035;1275;1016113;-72
2023/12/11 07:10:53;;;;;;;;;;;;;;;6.38;100.00;97675.55;68036;1275;1016892;-72
2023/12/11 07:13:55;;;;;;;;;;;;;;;6.29;100.00;97680.11;68041;1275;1016459;-72
2023/12/11 07:16:58;;;;;;;;;;;;;;;6.33;100.00;97687.52;67966;1275;1016338;-71
2023/12/11 07:20:00;;;;;;;;;;;;;;;6.38;100.00;97689.82;68057;1275;1015966;-71
2023/12/11 07:23:05;;;;;;;;;;;;;;;6.34;100.00;97688.32;68012;1275;1016209;-72
2023/12/11 07:26:09;;;;;;;;;;;;;;;6.40;100.00;97689.68;68018;1275;1017076;-72
2023/12/11 07:29:12;;;;;;;;;;;;;;;6.45;100.00;97691.81;68016;1275;1016393;-71
2023/12/11 07:32:14;;;;;;;;;;;;;;;6.46;100.00;97696.08;68016;1275;1016038;-71
2023/12/11 07:35:27;;;;;;;;;;;;;;;;;;;;;
2023/12/11 07:38:37;;;;;;;;;;;;;;;6.92;100.00;97696.68;68046;1275;1017650;-71
2023/12/11 07:41:39;;;;;;;;;;;;;;;7.03;100.00;97696.67;68043;1275;1016476;-72
2023/12/11 07:44:42;;;;;;;;;;;;;;;7.05;100.00;97696.03;68025;1275;1016069;-72
2023/12/11 07:47:44;;;;;;;;;;;;;;;7.10;100.00;97694.13;68033;1275;1016188;-71
2023/12/11 07:50:47;;;;;;;;;;;;;;;7.11;100.00;97690.77;68054;1275;1016377;-71
2023/12/11 07:53:50;;;;;;;;;;;;;;;7.20;100.00;97688.77;68019;1275;1016832;-70
2023/12/11 07:56:52;;;;;;;;;;;;;;;7.14;100.00;97692.30;67976;1275;1017823;-71
2023/12/11 07:59:55;;;;;;;;;;;;;;;7.21;100.00;97687.83;68023;1275;1016505;-73
2023/12/11 08:02:57;;;;;;;;;;;;;;;7.48;100.00;97686.83;68020;1275;1016007;-71
2023/12/11 08:06:00;;;;;;;;;;;;;;;7.50;100.00;97693.09;68001;1275;1016850;-71
2023/12/11 08:09:03;;;;;;;;;;;;;;;7.54;100.00;97689.01;68037;1275;1016489;-71
2023/12/11 08:12:05;;;;;;;;;;;;;;;7.50;100.00;97688.95;68034;1275;1016055;-71
2023/12/11 08:15:08;;;;;;;;;;;;;;;7.54;100.00;97684.83;68046;1275;1016445;-71
2023/12/11 08:18:11;;;;;;;;;;;;;;;7.62;100.00;97681.83;68017;1275;1016749;-71
2023/12/11 08:21:16;;;;;;;;;;;;;;;7.56;100.00;97677.20;68061;1275;1018547;-71
2023/12/11 08:24:19;;;;;;;;;;;;;;;7.56;100.00;97676.17;68018;1275;1016191;-71
2023/12/11 08:27:23;;;;;;;;;;;;;;;7.55;100.00;97667.04;68038;1275;1016446;-71
2023/12/11 08:30:26;;;;;;;;;;;;;;;7.51;100.00;97665.59;68059;1275;1016869;-71
2023/12/11 08:33:28;;;;;;;;;;;;;;;7.65;100.00;97666.17;68055;1275;1016452;-71
2023/12/11 08:36:31;;;;;;;;;;;;;;;7.61;100.00;97656.73;67992;1275;1016078;-71
2023/12/11 08:39:33;;;;;;;;;;;;;;;7.60;100.00;97654.17;67995;1275;1016253;-71
2023/12/11 08:42:36;;;;;;;;;;;;;;;7.55;100.00;97654.89;68081;1275;1016192;-71
2023/12/11 08:45:38;;;;;;;;;;;;;;;7.52;100.00;97659.04;68014;1275;1016554;-70
2023/12/11 08:48:41;;;;;;;;;;;;;;;7.55;100.00;97665.51;68004;1275;1016428;-71
2023/12/11 08:51:44;;;;;;;;;;;;;;;7.68;100.00;97661.27;68035;1275;1015914;-71
2023/12/11 08:54:47;;;;;;;;;;;;;;;7.79;100.00;97663.69;68018;1275;1018082;-71
2023/12/11 08:57:50;;;;;;;;;;;;;;;8.05;100.00;97658.63;67971;1275;1016467;-71
2023/12/11 09:00:52;;;;;;;;;;;;;;;8.11;100.00;97652.81;68034;1275;1018437;-71
2023/12/11 09:03:55;;;;;;;;;;;;;;;8.20;100.00;97653.20;67967;1275;1018563;-71
2023/12/11 09:06:58;;;;;;;;;;;;;;;8.22;100.00;97649.58;67998;1275;1018125;-71
2023/12/11 09:10:00;;;;;;;;;;;;;;;8.27;100.00;97647.86;68060;1275;1016331;-71
2023/12/11 09:13:03;;;;;;;;;;;;;;;8.30;100.00;97645.88;68029;1275;1016416;-71
2023/12/11 09:16:05;;;;;;;;;;;;;;;8.39;100.00;97642.16;68009;1275;1016934;-71
2023/12/11 09:19:09;;;;;;;;;;;;;;;8.50;100.00;97630.56;68003;1275;1016436;-72
2023/12/11 09:22:11;;;;;;;;;;;;;;;8.37;100.00;97632.52;68045;1275;1016220;-72
2023/12/11 09:25:14;;;;;;;;;;;;;;;8.36;100.00;97625.94;68032;1275;1015782;-72
2023/12/11 09:28:16;;;;;;;;;;;;;;;8.48;100.00;97618.51;68039;1275;1016354;-72
2023/12/11 09:31:19;;;;;;;;;;;;;;;8.52;100.00;97614.38;68047;1275;1016257;-72
2023/12/11 09:34:21;;;;;;;;;;;;;;;8.43;100.00;97612.44;68034;1275;1015869;-71
2023/12/11 09:37:24;;;;;;;;;;;;;;;8.32;100.00;97602.17;67986;1275;1018965;-72
2023/12/11 09:40:27;;;;;;;;;;;;;;;8.32;100.00;97603.92;68009;1275;1016038;-72
2023/12/11 09:43:29;;;;;;;;;;;;;;;8.35;100.00;97598.39;68010;1275;1016170;-71
2023/12/11 09:46:32;;;;;;;;;;;;;;;8.27;100.00;97598.19;67975;1275;1016198;-72
2023/12/11 09:49:35;;;;;;;;;;;;;;;8.37;100.00;97597.01;68074;1275;1016451;-72
2023/12/11 09:52:37;;;;;;;;;;;;;;;8.44;100.00;97603.98;68030;1275;1017116;-71
2023/12/11 09:55:40;;;;;;;;;;;;;;;8.52;100.00;97597.02;67987;1275;1016406;-72
2023/12/11 09:58:43;;;;;;;;;;;;;;;8.60;100.00;97594.17;67997;1275;1016393;-71
2023/12/11 10:01:45;;;;;;;;;;;;;;;8.62;100.00;97596.09;68050;1275;1016492;-72
2023/12/11 10:04:48;;;;;;;;;;;;;;;8.67;100.00;97592.41;68015;1275;1018826;-71
2023/12/11 10:07:50;;;;;;;;;;;;;;;8.79;100.00;97597.50;68000;1275;1016400;-72
2023/12/11 10:10:53;;;;;;;;;;;;;;;8.79;100.00;97594.69;68060;1275;1016195;-73
2023/12/11 10:13:56;;;;;;;;;;;;;;;8.75;100.00;97590.64;68054;1275;1016530;-72
2023/12/11 10:16:58;;;;;;;;;;;;;;;8.95;100.00;97583.38;67982;1275;1016471;-72
2023/12/11 10:20:01;;;;;;;;;;;;;;;9.16;100.00;97584.15;68017;1275;1016472;-72
2023/12/11 10:23:03;;;;;;;;;;;;;;;9.17;100.00;97583.56;68040;1275;1016459;-72
2023/12/11 10:26:06;;;;;;;;;;;;;;;9.21;100.00;97585.11;68022;1275;1016478;-72
2023/12/11 10:29:09;;;;;;;;;;;;;;;9.24;100.00;97580.05;68017;1275;1016326;-72
2023/12/11 10:32:11;;;;;;;;;;;;;;;9.32;100.00;97579.73;68033;1275;1016212;-72
2023/12/11 10:35:14;;;;;;;;;;;;;;;9.30;100.00;97574.38;68014;1275;1016119;-72
2023/12/11 10:38:16;;;;;;;;;;;;;;;9.09;100.00;97574.72;68038;1275;1016462;-72
2023/12/11 10:41:19;;;;;;;;;;;;;;;9.11;100.00;97577.55;68002;1275;1016417;-72
2023/12/11 10:44:21;;;;;;;;;;;;;;;9.14;100.00;97574.48;68037;1275;1016494;-72
2023/12/11 10:47:24;;;;;;;;;;;;;;;9.29;100.00;97575.27;68075;1275;1016292;-72
2023/12/11 10:50:27;;;;;;;;;;;;;;;9.28;100.00;97571.05;67967;1275;1016347;-72
2023/12/11 10:53:29;;;;;;;;;;;;;;;9.33;100.00;97566.47;67994;1275;1016459;-72
2023/12/11 10:56:32;;;;;;;;;;;;;;;9.46;100.00;97561.41;68074;1275;1016456;-72
2023/12/11 10:59:34;;;;;;;;;;;;;;;9.47;100.00;97562.58;68005;1275;1016458;-72
2023/12/11 11:02:37;;;;;;;;;;;;;;;9.45;100.00;97557.84;67991;1275;1016232;-73
2023/12/11 11:05:40;;;;;;;;;;;;;;;9.61;100.00;97563.83;67992;1275;1018829;-73
2023/12/11 11:08:42;;;;;;;;;;;;;;;9.79;100.00;97557.71;68026;1275;1016506;-73
2023/12/11 11:11:45;;;;;;;;;;;;;;;9.75;100.00;97561.70;68047;1275;1016474;-73
2023/12/11 11:14:47;;;;;;;;;;;;;;;9.67;100.00;97561.21;68020;1275;1015870;-73
2023/12/11 11:17:50;;;;;;;;;;;;;;;9.78;100.00;97562.17;68024;1275;1015849;-73
2023/12/11 11:20:53;;;;;;;;;;;;;;;10.07;100.00;97555.84;68036;1275;1018541;-72
2023/12/11 11:23:56;;;;;;;;;;;;;;;10.39;100.00;97557.17;67978;1275;1018918;-73
2023/12/11 11:26:58;;;;;;;;;;;;;;;10.41;100.00;97554.58;68001;1275;1016507;-73
2023/12/11 11:30:01;;;;;;;;;;;;;;;10.44;100.00;97553.36;68013;1275;1016489;-73
2023/12/11 11:33:04;;;;;;;;;;;;;;;10.52;100.00;97548.44;67985;1275;1017094;-72
2023/12/11 11:36:07;;;;;;;;;;;;;;;10.53;100.00;97543.36;68004;1275;1016090;-73
2023/12/11 11:39:10;;;;;;;;;;;;;;;10.63;100.00;97537.29;67982;1275;1016413;-73
2023/12/11 11:42:12;;;;;;;;;;;;;;;10.82;100.00;97535.42;68024;1275;1016428;-72
2023/12/11 11:45:15;;;;;;;;;;;;;;;10.94;100.00;97530.52;68015;1275;1016484;-73
2023/12/11 11:48:18;;;;;;;;;;;;;;;10.83;100.00;97533.15;68004;1275;1016211;-73
2023/12/11 11:51:22;;;;;;;;;;;;;;;10.59;100.00;97531.14;67992;1275;1016706;-73
2023/12/11 11:54:25;;;;;;;;;;;;;;;10.45;100.00;97529.50;68073;1275;1015872;-74
2023/12/11 11:57:28;;;;;;;;;;;;;;;10.21;100.00;97526.43;68008;1275;1016410;-73
2023/12/11 12:00:31;;;;;;;;;;;;;;;10.08;100.00;97528.05;68062;1275;1015792;-72
2023/12/11 12:03:34;;;;;;;;;;;;;;;10.38;100.00;97522.65;68013;1275;1016452;-73
2023/12/11 12:06:37;;;;;;;;;;;;;;;10.70;100.00;97524.68;68021;1275;1016438;-73
2023/12/11 12:09:39;;;;;;;;;;;;;;;10.74;100.00;97522.61;68056;1275;1015870;-72
2023/12/11 12:12:42;;;;;;;;;;;;;;;10.69;100.00;97519.35;68041;1275;1016288;-72
2023/12/11 12:15:45;;;;;;;;;;;;;;;10.61;100.00;97516.52;68012;1275;1016227;-73
2023/12/11 12:18:49;;;;;;;;;;;;;;;10.40;100.00;97518.52;68063;1275;1016701;-72
2023/12/11 12:21:54;;;;;;;;;;;;;;;10.49;100.00;97512.90;68040;1275;1016291;-72
2023/12/11 12:24:56;;;;;;;;;;;;;;;10.41;100.00;97506.38;68035;1275;1015850;-72
2023/12/11 12:27:59;;;;;;;;;;;;;;;10.40;100.00;97501.04;68045;1275;1016462;-72
2023/12/11 12:31:01;;;;;;;;;;;;;;;10.53;100.00;97495.09;68025;1275;1016625;-72
2023/12/11 12:34:04;;;;;;;;;;;;;;;10.59;100.00;97494.79;68014;1275;1016295;-73
2023/12/11 12:37:07;;;;;;;;;;;;;;;10.61;100.00;97491.98;68021;1275;1016420;-73
2023/12/11 12:40:11;;;;;;;;;;;;;;;10.60;100.00;97490.35;68040;1275;1018505;-72
2023/12/11 12:43:15;;;;;;;;;;;;;;;10.54;100.00;97491.99;68020;1275;1015882;-73
2023/12/11 12:46:17;;;;;;;;;;;;;;;10.61;100.00;97486.75;68062;1275;1016460;-73
2023/12/11 12:49:20;;;;;;;;;;;;;;;10.57;100.00;97487.42;68030;1275;1016144;-73
2023/12/11 12:52:23;;;;;;;;;;;;;;;10.56;100.00;97489.27;68061;1275;1016299;-73
2023/12/11 12:55:26;;;;;;;;;;;;;;;10.52;100.00;97491.65;67990;1275;1016222;-73
2023/12/11 12:58:30;;;;;;;;;;;;;;;10.58;100.00;97489.95;68047;1275;1018320;-73
2023/12/11 13:01:35;;;;;;;;;;;;;;;10.53;100.00;97487.54;68020;1275;1016372;-72
2023/12/11 13:04:38;;;;;;;;;;;;;;;10.51;100.00;97487.60;68039;1275;1016915;-73
2023/12/11 13:07:41;;;;;;;;;;;;;;;10.52;100.00;97490.23;68026;1275;1016077;-73
2023/12/11 13:10:43;;;;;;;;;;;;;;;10.49;100.00;97490.02;68018;1275;1016457;-72
2023/12/11 13:13:46;;;;;;;;;;;;;;;10.49;100.00;97495.64;68055;1275;1016874;-73
2023/12/11 13:16:49;;;;;;;;;;;;;;;10.42;100.00;97499.29;68010;1275;1016247;-73
2023/12/11 13:19:52;;;;;;;;;;;;;;;10.32;100.00;97494.52;68057;1275;1016643;-74
2023/12/11 13:22:54;;;;;;;;;;;;;;;10.27;100.00;97502.20;68035;1275;1016338;-73
2023/12/11 13:25:57;;;;;;;;;;;;;;;10.25;100.00;97497.98;68006;1275;1016421;-72
2023/12/11 13:29:00;;;;;;;;;;;;;;;10.12;100.00;97491.73;68031;1275;1016512;-73
2023/12/11 13:32:03;;;;;;;;;;;;;;;9.99;100.00;97490.31;68056;1275;1017472;-72
2023/12/11 13:35:07;;;;;;;;;;;;;;;9.80;100.00;97487.95;68064;1275;1016817;-73
2023/12/11 13:38:10;;;;;;;;;;;;;;;9.61;100.00;97493.50;68069;1275;1016454;-73
2023/12/11 13:41:13;;;;;;;;;;;;;;;9.43;100.00;97499.38;68058;1275;1016125;-73
2023/12/11 13:44:16;;;;;;;;;;;;;;;9.32;100.00;97503.58;68001;1275;1018682;-73
2023/12/11 13:47:21;;;;;;;;;;;;;;;9.30;100.00;97501.47;68053;1275;1020114;-73
2023/12/11 13:50:24;;;;;;;;;;;;;;;9.26;100.00;97504.54;68044;1275;1016048;-72
2023/12/11 13:53:27;;;;;;;;;;;;;;;9.02;100.00;97504.95;67982;1275;1016452;-73
2023/12/11 13:56:30;;;;;;;;;;;;;;;8.87;100.00;97509.06;68000;1275;1016461;-73
2023/12/11 13:59:33;;;;;;;;;;;;;;;8.81;100.00;97512.82;67988;1275;1016224;-74
2023/12/11 14:02:35;;;;;;;;;;;;;;;8.74;100.00;97508.31;68002;1275;1016221;-72
2023/12/11 14:05:38;;;;;;;;;;;;;;;8.67;100.00;97505.29;68043;1275;1016489;-73
2023/12/11 14:08:41;;;;;;;;;;;;;;;8.64;100.00;97499.20;68048;1275;1016084;-73
2023/12/11 14:11:46;;;;;;;;;;;;;;;8.63;100.00;97502.79;68014;1275;1015932;-73
2023/12/11 14:14:49;;;;;;;;;;;;;;;8.58;100.00;97507.38;68064;1275;1016460;-73
2023/12/11 14:17:52;;;;;;;;;;;;;;;8.57;100.00;97512.30;68042;1275;1016261;-73
2023/12/11 14:20:54;;;;;;;;;;;;;;;8.55;100.00;97514.75;68046;1275;1016452;-73
2023/12/11 14:23:57;;;;;;;;;;;;;;;8.47;100.00;97511.13;68040;1275;1016340;-74
2023/12/11 14:27:00;;;;;;;;;;;;;;;8.38;100.00;97507.36;67986;1275;1015887;-74
2023/12/11 14:30:02;;;;;;;;;;;;;;;8.41;100.00;97505.09;67998;1275;1016469;-73
2023/12/11 14:33:05;;;;;;;;;;;;;;;8.34;100.00;97508.70;68030;1275;1016300;-73
2023/12/11 14:36:10;;;;;;;;;;;;;;;8.43;100.00;97512.21;68057;1275;1016492;-73
2023/12/11 14:39:13;;;;;;;;;;;;;;;8.42;100.00;97518.05;68044;1275;1015955;-73
2023/12/11 14:42:16;;;;;;;;;;;;;;;8.31;100.00;97523.59;68025;1275;1016543;-73
2023/12/11 14:45:18;;;;;;;;;;;;;;;8.24;100.00;97528.06;67986;1275;1016357;-73
2023/12/11 14:48:21;;;;;;;;;;;;;;;8.21;100.00;97527.04;68025;1275;1016387;-73
2023/12/11 14:51:24;;;;;;;;;;;;;;;8.15;100.00;97520.02;68010;1275;1016581;-73
2023/12/11 14:54:27;;;;;;;;;;;;;;;8.16;100.00;97520.14;68045;1275;1016448;-73
2023/12/11 14:57:31;;;;;;;;;;;;;;;8.11;100.00;97516.30;68055;1275;1016458;-73
2023/12/11 15:00:34;;;;;;;;;;;;;;;7.99;100.00;97521.34;68018;1275;1016513;-73
2023/12/11 15:03:37;;;;;;;;;;;;;;;7.95;100.00;97514.23;67975;1275;1016481;-73
2023/12/11 15:06:40;;;;;;;;;;;;;;;8.00;100.00;97518.46;68030;1275;1016369;-73
2023/12/11 15:09:43;;;;;;;;;;;;;;;7.98;100.00;97523.32;68074;1275;1019697;-73
2023/12/11 15:12:46;;;;;;;;;;;;;;;7.94;100.00;97528.30;67988;1275;1016275;-73
2023/12/11 15:15:48;;;;;;;;;;;;;;;7.85;100.00;97528.39;67998;1275;1016474;-73
2023/12/11 15:18:51;;;;;;;;;;;;;;;7.83;100.00;97524.52;68047;1275;1016428;-73
2023/12/11 15:21:54;;;;;;;;;;;;;;;7.75;100.00;97523.70;67996;1275;1016438;-73
2023/12/11 15:24:57;;;;;;;;;;;;;;;7.73;100.00;97524.36;67935;1275;1016480;-73